This is the latest recevied weather packets stored in our database for station/object AA0RD-13. If no packets are shown the sender has not sent any weather packets the latest 10 day(s).
| Time | Temp. | Humidity | Pressure | Rain* | Wind** | Luminosity | Snow |
|---|---|---|---|---|---|---|---|
| 1777766608 | 19.44° C | 58% | 1014.4 hPa | 0 mm | - | - | - |
| 1777766011 | 19.44° C | 58% | 1014.6 hPa | 0 mm | - | - | - |
| 1777765703 | 19.44° C | 57% | 1014.6 hPa | 0 mm | - | - | - |
| 1777765395 | 19.44° C | 57% | 1014.7 hPa | 0 mm | - | - | - |
| 1777764512 | 19.44° C | 57% | 1014.8 hPa | 0 mm | - | - | - |
| 1777761506 | 20° C | 59% | 1015.7 hPa | 0 mm | - | - | - |
| 1777761198 | 20° C | 59% | 1015.8 hPa | 0 mm | - | - | - |
| 1777759714 | 18.89° C | 64% | 1016.3 hPa | 0 mm | - | - | - |
| 1777757598 | 16.11° C | 77% | 1016.5 hPa | 0 mm | - | - | - |
| 1777757310 | 16.11° C | 79% | 1016.5 hPa | 0 mm | - | - | - |
| 1777757001 | 15.56° C | 81% | 1016.5 hPa | 0 mm | - | - | - |
| 1777756714 | 15.56° C | 80% | 1016.6 hPa | 0 mm | - | - | - |
| 1777754905 | 15.56° C | 79% | 1016.8 hPa | 0 mm | - | - | - |
| 1777754598 | 15.56° C | 80% | 1016.8 hPa | 0 mm | - | - | - |
| 1777753712 | 15° C | 79% | 1017 hPa | 0 mm | - | - | - |
| 1777753121 | 15° C | 81% | 1017.1 hPa | 0 mm | - | - | - |
| 1777752503 | 15° C | 81% | 1017.2 hPa | 0 mm | - | - | - |
| 1777751596 | 15° C | 83% | 1017.5 hPa | 0 mm | - | - | - |
| 1777750999 | 15° C | 85% | 1017.6 hPa | 0 mm | - | - | - |
| 1777749499 | 13.89° C | 88% | 1017.6 hPa | 0 mm | - | - | - |
| 1777748904 | 13.89° C | 88% | 1017.6 hPa | 0 mm | - | - | - |
| 1777748635 | 13.89° C | 89% | 1017.6 hPa | 0 mm | - | - | - |
| 1777748018 | 13.89° C | 89% | 1017.6 hPa | 0 mm | - | - | - |
| 1777747096 | 13.33° C | 92% | 1017.7 hPa | 0 mm | - | - | - |
| 1777746498 | 13.33° C | 93% | 1017.7 hPa | 0 mm | - | - | - |
* Rain latest hour (hover to see other rain measurements)
** Current wind speed in m/s (hover to see current wind gust speed)